sensor_id;sensor_type;location;lat;lon;timestamp;temperature;humidity
30150;DHT22;16962;48.646;9.026;2023-02-03T00:02:39;3.70;99.90
30150;DHT22;16962;48.646;9.026;2023-02-03T00:05:27;3.70;1.00
30150;DHT22;16962;48.646;9.026;2023-02-03T00:08:16;3.70;99.90
30150;DHT22;16962;48.646;9.026;2023-02-03T00:11:06;3.70;1.00
30150;DHT22;16962;48.646;9.026;2023-02-03T00:13:53;3.60;1.00
30150;DHT22;16962;48.646;9.026;2023-02-03T00:16:41;3.60;71.30
30150;DHT22;16962;48.646;9.026;2023-02-03T00:19:31;3.60;99.90
30150;DHT22;16962;48.646;9.026;2023-02-03T00:22:18;3.60;99.90
30150;DHT22;16962;48.646;9.026;2023-02-03T00:25:06;3.60;99.90
30150;DHT22;16962;48.646;9.026;2023-02-03T00:27:53;3.60;99.90
30150;DHT22;16962;48.646;9.026;2023-02-03T00:30:40;3.60;1.00
30150;DHT22;16962;48.646;9.026;2023-02-03T00:33:28;3.60;1.00
30150;DHT22;16962;48.646;9.026;2023-02-03T00:36:19;3.60;1.00
30150;DHT22;16962;48.646;9.026;2023-02-03T00:39:06;3.60;1.00
30150;DHT22;16962;48.646;9.026;2023-02-03T00:41:54;3.60;1.00
30150;DHT22;16962;48.646;9.026;2023-02-03T00:44:41;3.60;1.00
30150;DHT22;16962;48.646;9.026;2023-02-03T00:47:29;3.60;1.00
30150;DHT22;16962;48.646;9.026;2023-02-03T00:50:16;3.60;1.00
30150;DHT22;16962;48.646;9.026;2023-02-03T00:53:03;3.60;1.00
30150;DHT22;16962;48.646;9.026;2023-02-03T00:55:50;3.60;1.00
30150;DHT22;16962;48.646;9.026;2023-02-03T00:58:43;3.60;1.00
30150;DHT22;16962;48.646;9.026;2023-02-03T01:01:32;3.60;1.00
30150;DHT22;16962;48.646;9.026;2023-02-03T01:04:20;3.60;1.00
30150;DHT22;16962;48.646;9.026;2023-02-03T01:07:09;3.60;1.00
30150;DHT22;16962;48.646;9.026;2023-02-03T01:09:56;3.60;1.00
30150;DHT22;16962;48.646;9.026;2023-02-03T01:12:43;3.60;1.00
30150;DHT22;16962;48.646;9.026;2023-02-03T01:15:33;3.60;1.00
30150;DHT22;16962;48.646;9.026;2023-02-03T01:18:20;3.60;1.00
30150;DHT22;16962;48.646;9.026;2023-02-03T01:21:30;3.60;1.00
30150;DHT22;16962;48.646;9.026;2023-02-03T01:24:16;3.60;1.00
30150;DHT22;16962;48.646;9.026;2023-02-03T01:27:03;3.60;1.00
30150;DHT22;16962;48.646;9.026;2023-02-03T01:29:52;3.60;1.00
30150;DHT22;16962;48.646;9.026;2023-02-03T01:32:39;3.60;1.00
30150;DHT22;16962;48.646;9.026;2023-02-03T01:35:26;3.70;1.00
30150;DHT22;16962;48.646;9.026;2023-02-03T01:38:14;3.70;1.00
30150;DHT22;16962;48.646;9.026;2023-02-03T01:41:02;3.70;1.00
30150;DHT22;16962;48.646;9.026;2023-02-03T01:43:52;3.70;1.00
30150;DHT22;16962;48.646;9.026;2023-02-03T01:46:46;3.70;1.00
30150;DHT22;16962;48.646;9.026;2023-02-03T01:49:35;3.70;1.00
30150;DHT22;16962;48.646;9.026;2023-02-03T01:52:23;3.70;1.00
30150;DHT22;16962;48.646;9.026;2023-02-03T01:55:16;3.60;5.50
30150;DHT22;16962;48.646;9.026;2023-02-03T01:58:17;3.70;30.40
30150;DHT22;16962;48.646;9.026;2023-02-03T02:01:09;3.70;40.70
30150;DHT22;16962;48.646;9.026;2023-02-03T02:04:00;3.70;35.10
30150;DHT22;16962;48.646;9.026;2023-02-03T02:06:49;3.70;24.80
30150;DHT22;16962;48.646;9.026;2023-02-03T02:09:39;3.70;53.60
30150;DHT22;16962;48.646;9.026;2023-02-03T02:12:27;3.80;45.60
30150;DHT22;16962;48.646;9.026;2023-02-03T02:15:18;3.90;1.00
30150;DHT22;16962;48.646;9.026;2023-02-03T02:39:52;3.80;1.00
30150;DHT22;16962;48.646;9.026;2023-02-03T02:45:48;3.80;1.00
30150;DHT22;16962;48.646;9.026;2023-02-03T02:48:58;3.80;1.00
30150;DHT22;16962;48.646;9.026;2023-02-03T02:51:48;3.80;1.00
30150;DHT22;16962;48.646;9.026;2023-02-03T02:54:43;3.80;2.40
30150;DHT22;16962;48.646;9.026;2023-02-03T02:57:34;3.80;41.00
30150;DHT22;16962;48.646;9.026;2023-02-03T03:00:25;3.80;79.90
30150;DHT22;16962;48.646;9.026;2023-02-03T03:03:17;3.80;80.20
30150;DHT22;16962;48.646;9.026;2023-02-03T03:06:09;3.80;98.50
30150;DHT22;16962;48.646;9.026;2023-02-03T03:09:03;3.80;99.90
30150;DHT22;16962;48.646;9.026;2023-02-03T03:12:01;3.80;99.90
30150;DHT22;16962;48.646;9.026;2023-02-03T03:14:59;3.80;99.90
30150;DHT22;16962;48.646;9.026;2023-02-03T03:17:58;3.80;99.90
30150;DHT22;16962;48.646;9.026;2023-02-03T03:20:48;3.80;99.90
30150;DHT22;16962;48.646;9.026;2023-02-03T03:23:38;3.80;99.90
30150;DHT22;16962;48.646;9.026;2023-02-03T03:26:39;3.80;99.90
30150;DHT22;16962;48.646;9.026;2023-02-03T03:29:36;3.80;99.90
30150;DHT22;16962;48.646;9.026;2023-02-03T03:32:26;3.80;99.90
30150;DHT22;16962;48.646;9.026;2023-02-03T03:35:19;3.80;99.90
30150;DHT22;16962;48.646;9.026;2023-02-03T03:38:40;3.70;99.90
30150;DHT22;16962;48.646;9.026;2023-02-03T03:41:37;3.70;99.90
30150;DHT22;16962;48.646;9.026;2023-02-03T03:44:31;3.70;99.90
30150;DHT22;16962;48.646;9.026;2023-02-03T03:47:32;3.70;99.90
30150;DHT22;16962;48.646;9.026;2023-02-03T03:50:26;3.80;99.90
30150;DHT22;16962;48.646;9.026;2023-02-03T03:53:16;3.80;99.90
30150;DHT22;16962;48.646;9.026;2023-02-03T03:56:06;3.80;99.90
30150;DHT22;16962;48.646;9.026;2023-02-03T03:59:04;3.80;99.90
30150;DHT22;16962;48.646;9.026;2023-02-03T04:01:56;3.80;99.90
30150;DHT22;16962;48.646;9.026;2023-02-03T04:04:45;3.80;99.90
30150;DHT22;16962;48.646;9.026;2023-02-03T04:07:44;3.70;99.90
30150;DHT22;16962;48.646;9.026;2023-02-03T04:10:36;3.80;99.90
30150;DHT22;16962;48.646;9.026;2023-02-03T04:13:27;3.80;99.90
30150;DHT22;16962;48.646;9.026;2023-02-03T04:16:16;3.80;99.90
30150;DHT22;16962;48.646;9.026;2023-02-03T04:19:04;3.80;99.90
30150;DHT22;16962;48.646;9.026;2023-02-03T04:21:54;3.70;99.90
30150;DHT22;16962;48.646;9.026;2023-02-03T04:24:41;3.70;99.90
30150;DHT22;16962;48.646;9.026;2023-02-03T04:27:28;3.70;99.90
30150;DHT22;16962;48.646;9.026;2023-02-03T04:30:18;3.70;99.90
30150;DHT22;16962;48.646;9.026;2023-02-03T04:33:05;3.70;99.90
30150;DHT22;16962;48.646;9.026;2023-02-03T04:35:55;3.60;99.90
30150;DHT22;16962;48.646;9.026;2023-02-03T04:38:42;3.60;99.90
30150;DHT22;16962;48.646;9.026;2023-02-03T04:41:32;3.60;99.90
30150;DHT22;16962;48.646;9.026;2023-02-03T04:44:19;3.60;99.90
30150;DHT22;16962;48.646;9.026;2023-02-03T04:47:07;3.70;99.90
30150;DHT22;16962;48.646;9.026;2023-02-03T04:49:57;3.60;99.90
30150;DHT22;16962;48.646;9.026;2023-02-03T04:52:44;3.60;99.90
30150;DHT22;16962;48.646;9.026;2023-02-03T04:55:31;3.70;99.90
30150;DHT22;16962;48.646;9.026;2023-02-03T04:58:18;3.60;99.90
30150;DHT22;16962;48.646;9.026;2023-02-03T05:01:11;3.60;99.90
30150;DHT22;16962;48.646;9.026;2023-02-03T05:04:14;3.60;99.90
30150;DHT22;16962;48.646;9.026;2023-02-03T05:07:39;3.60;99.90
30150;DHT22;16962;48.646;9.026;2023-02-03T05:10:29;3.70;99.90
30150;DHT22;16962;48.646;9.026;2023-02-03T05:13:16;3.70;99.90
30150;DHT22;16962;48.646;9.026;2023-02-03T05:16:04;3.70;99.90
30150;DHT22;16962;48.646;9.026;2023-02-03T05:18:51;3.60;99.90
30150;DHT22;16962;48.646;9.026;2023-02-03T05:21:41;3.70;99.90
30150;DHT22;16962;48.646;9.026;2023-02-03T05:24:28;3.70;99.90
30150;DHT22;16962;48.646;9.026;2023-02-03T05:27:15;3.70;99.90
30150;DHT22;16962;48.646;9.026;2023-02-03T05:30:03;3.70;99.90
30150;DHT22;16962;48.646;9.026;2023-02-03T05:32:54;3.70;99.90
30150;DHT22;16962;48.646;9.026;2023-02-03T05:35:41;3.70;99.90
30150;DHT22;16962;48.646;9.026;2023-02-03T05:38:30;3.70;99.90
30150;DHT22;16962;48.646;9.026;2023-02-03T05:41:17;3.70;99.90
30150;DHT22;16962;48.646;9.026;2023-02-03T05:44:27;3.70;99.90
30150;DHT22;16962;48.646;9.026;2023-02-03T05:47:20;3.70;99.90
30150;DHT22;16962;48.646;9.026;2023-02-03T05:50:07;3.80;99.90
30150;DHT22;16962;48.646;9.026;2023-02-03T05:52:54;3.80;99.90
30150;DHT22;16962;48.646;9.026;2023-02-03T05:55:42;3.80;99.90
30150;DHT22;16962;48.646;9.026;2023-02-03T05:58:29;3.80;99.90
30150;DHT22;16962;48.646;9.026;2023-02-03T06:01:21;3.70;99.90
30150;DHT22;16962;48.646;9.026;2023-02-03T06:04:11;3.70;99.90
30150;DHT22;16962;48.646;9.026;2023-02-03T06:06:59;3.70;99.90
30150;DHT22;16962;48.646;9.026;2023-02-03T06:09:46;3.70;99.90
30150;DHT22;16962;48.646;9.026;2023-02-03T06:12:38;3.70;99.90
30150;DHT22;16962;48.646;9.026;2023-02-03T06:15:26;3.70;99.90
30150;DHT22;16962;48.646;9.026;2023-02-03T06:18:14;3.80;99.90
30150;DHT22;16962;48.646;9.026;2023-02-03T06:21:01;3.80;99.90
30150;DHT22;16962;48.646;9.026;2023-02-03T06:23:53;3.80;99.90
30150;DHT22;16962;48.646;9.026;2023-02-03T06:26:41;3.70;99.90
30150;DHT22;16962;48.646;9.026;2023-02-03T06:29:28;3.80;99.90
30150;DHT22;16962;48.646;9.026;2023-02-03T06:32:16;3.80;99.90
30150;DHT22;16962;48.646;9.026;2023-02-03T06:35:06;3.80;99.90
30150;DHT22;16962;48.646;9.026;2023-02-03T06:37:53;3.80;99.90
30150;DHT22;16962;48.646;9.026;2023-02-03T06:40:51;3.80;99.90
30150;DHT22;16962;48.646;9.026;2023-02-03T06:43:40;3.80;99.90
30150;DHT22;16962;48.646;9.026;2023-02-03T06:46:30;3.70;99.90
30150;DHT22;16962;48.646;9.026;2023-02-03T06:49:20;3.70;99.90
30150;DHT22;16962;48.646;9.026;2023-02-03T06:52:07;3.70;99.90
30150;DHT22;16962;48.646;9.026;2023-02-03T06:54:57;3.70;93.70
30150;DHT22;16962;48.646;9.026;2023-02-03T06:57:46;3.70;61.80
30150;DHT22;16962;48.646;9.026;2023-02-03T07:00:34;3.70;1.00
30150;DHT22;16962;48.646;9.026;2023-02-03T07:03:21;3.70;1.00
30150;DHT22;16962;48.646;9.026;2023-02-03T07:06:17;3.60;2.90
30150;DHT22;16962;48.646;9.026;2023-02-03T07:09:07;3.60;41.80
30150;DHT22;16962;48.646;9.026;2023-02-03T07:12:26;3.60;99.90
30150;DHT22;16962;48.646;9.026;2023-02-03T07:15:24;3.50;99.90
30150;DHT22;16962;48.646;9.026;2023-02-03T07:18:22;3.50;99.90
30150;DHT22;16962;48.646;9.026;2023-02-03T07:21:25;3.50;99.90
30150;DHT22;16962;48.646;9.026;2023-02-03T07:24:15;3.50;99.90
30150;DHT22;16962;48.646;9.026;2023-02-03T07:27:23;3.50;99.90
30150;DHT22;16962;48.646;9.026;2023-02-03T07:30:11;3.50;99.90
30150;DHT22;16962;48.646;9.026;2023-02-03T07:33:01;3.50;99.90
30150;DHT22;16962;48.646;9.026;2023-02-03T07:36:09;3.60;99.90
30150;DHT22;16962;48.646;9.026;2023-02-03T14:29:42;5.80;99.90
30150;DHT22;16962;48.646;9.026;2023-02-03T14:33:01;5.80;99.90
30150;DHT22;16962;48.646;9.026;2023-02-03T14:35:53;5.90;99.90
30150;DHT22;16962;48.646;9.026;2023-02-03T14:38:40;5.90;99.90
30150;DHT22;16962;48.646;9.026;2023-02-03T14:44:52;5.90;99.90
30150;DHT22;16962;48.646;9.026;2023-02-03T14:54:42;5.80;99.90
30150;DHT22;16962;48.646;9.026;2023-02-03T14:57:53;5.80;99.90
30150;DHT22;16962;48.646;9.026;2023-02-03T15:00:49;5.80;1.00
30150;DHT22;16962;48.646;9.026;2023-02-03T15:04:24;5.70;1.00
30150;DHT22;16962;48.646;9.026;2023-02-03T15:10:49;5.60;1.00
30150;DHT22;16962;48.646;9.026;2023-02-03T15:13:40;5.60;69.50
30150;DHT22;16962;48.646;9.026;2023-02-03T15:16:30;5.50;99.90
30150;DHT22;16962;48.646;9.026;2023-02-03T15:19:23;5.50;99.90
30150;DHT22;16962;48.646;9.026;2023-02-03T15:22:28;5.50;99.90
30150;DHT22;16962;48.646;9.026;2023-02-03T15:25:21;5.40;5.00
30150;DHT22;16962;48.646;9.026;2023-02-03T15:28:20;5.40;99.90
30150;DHT22;16962;48.646;9.026;2023-02-03T15:31:31;5.30;99.90
30150;DHT22;16962;48.646;9.026;2023-02-03T15:40:55;5.40;99.90
30150;DHT22;16962;48.646;9.026;2023-02-03T15:43:47;5.40;99.90
30150;DHT22;16962;48.646;9.026;2023-02-03T15:53:18;5.50;17.40
30150;DHT22;16962;48.646;9.026;2023-02-03T15:56:06;5.50;1.00
30150;DHT22;16962;48.646;9.026;2023-02-03T15:58:53;5.50;1.00
30150;DHT22;16962;48.646;9.026;2023-02-03T16:01:41;5.50;1.00
30150;DHT22;16962;48.646;9.026;2023-02-03T16:04:29;5.50;1.00
30150;DHT22;16962;48.646;9.026;2023-02-03T16:07:23;5.40;1.00
30150;DHT22;16962;48.646;9.026;2023-02-03T16:10:30;5.40;1.00
30150;DHT22;16962;48.646;9.026;2023-02-03T16:13:24;5.40;99.90
30150;DHT22;16962;48.646;9.026;2023-02-03T16:16:41;5.30;99.90
30150;DHT22;16962;48.646;9.026;2023-02-03T16:19:48;5.30;1.00
30150;DHT22;16962;48.646;9.026;2023-02-03T16:22:42;5.20;1.00
30150;DHT22;16962;48.646;9.026;2023-02-03T16:25:33;5.20;1.00
30150;DHT22;16962;48.646;9.026;2023-02-03T16:28:21;5.20;1.00
30150;DHT22;16962;48.646;9.026;2023-02-03T16:31:27;5.10;99.90
30150;DHT22;16962;48.646;9.026;2023-02-03T16:34:33;5.00;99.90
30150;DHT22;16962;48.646;9.026;2023-02-03T16:37:43;5.00;1.00
30150;DHT22;16962;48.646;9.026;2023-02-03T16:40:56;5.00;21.40
30150;DHT22;16962;48.646;9.026;2023-02-03T16:44:02;5.00;99.90
30150;DHT22;16962;48.646;9.026;2023-02-03T16:50:29;4.90;99.90
30150;DHT22;16962;48.646;9.026;2023-02-03T16:53:34;5.00;99.90
30150;DHT22;16962;48.646;9.026;2023-02-03T16:56:25;5.00;99.90
30150;DHT22;16962;48.646;9.026;2023-02-03T16:59:12;5.00;99.90
30150;DHT22;16962;48.646;9.026;2023-02-03T17:02:00;5.00;99.90
30150;DHT22;16962;48.646;9.026;2023-02-03T17:04:48;5.00;99.90
30150;DHT22;16962;48.646;9.026;2023-02-03T17:07:35;5.10;99.90
30150;DHT22;16962;48.646;9.026;2023-02-03T17:10:23;5.10;99.90
30150;DHT22;16962;48.646;9.026;2023-02-03T17:13:14;5.00;99.90
30150;DHT22;16962;48.646;9.026;2023-02-03T17:16:07;5.10;99.90
30150;DHT22;16962;48.646;9.026;2023-02-03T17:18:55;5.10;99.90
30150;DHT22;16962;48.646;9.026;2023-02-03T17:21:43;5.10;99.90
30150;DHT22;16962;48.646;9.026;2023-02-03T17:24:30;5.10;99.90
30150;DHT22;16962;48.646;9.026;2023-02-03T17:27:18;5.10;99.90
30150;DHT22;16962;48.646;9.026;2023-02-03T17:30:08;5.20;99.90
30150;DHT22;16962;48.646;9.026;2023-02-03T17:32:57;5.10;99.90
30150;DHT22;16962;48.646;9.026;2023-02-03T17:35:45;5.10;99.90
30150;DHT22;16962;48.646;9.026;2023-02-03T17:38:37;5.10;99.90
30150;DHT22;16962;48.646;9.026;2023-02-03T17:41:41;5.10;99.90
30150;DHT22;16962;48.646;9.026;2023-02-03T17:44:48;5.10;99.90
30150;DHT22;16962;48.646;9.026;2023-02-03T17:47:53;5.00;99.90
30150;DHT22;16962;48.646;9.026;2023-02-03T17:54:16;5.00;99.90
30150;DHT22;16962;48.646;9.026;2023-02-03T17:57:06;5.00;99.90
30150;DHT22;16962;48.646;9.026;2023-02-03T17:59:53;5.00;99.90
30150;DHT22;16962;48.646;9.026;2023-02-03T18:02:49;5.00;99.90
30150;DHT22;16962;48.646;9.026;2023-02-03T18:05:39;5.00;99.90
30150;DHT22;16962;48.646;9.026;2023-02-03T18:08:49;5.00;99.90
30150;DHT22;16962;48.646;9.026;2023-02-03T18:11:37;5.00;99.90
30150;DHT22;16962;48.646;9.026;2023-02-03T18:14:24;5.00;99.90
30150;DHT22;16962;48.646;9.026;2023-02-03T18:17:14;5.00;99.90
30150;DHT22;16962;48.646;9.026;2023-02-03T18:20:02;5.00;99.90
30150;DHT22;16962;48.646;9.026;2023-02-03T18:22:49;5.00;99.90
30150;DHT22;16962;48.646;9.026;2023-02-03T18:25:37;5.00;99.90
30150;DHT22;16962;48.646;9.026;2023-02-03T18:28:26;5.00;99.90
30150;DHT22;16962;48.646;9.026;2023-02-03T18:31:17;5.00;99.90
30150;DHT22;16962;48.646;9.026;2023-02-03T18:34:07;5.00;99.90
30150;DHT22;16962;48.646;9.026;2023-02-03T18:36:55;5.00;99.90
30150;DHT22;16962;48.646;9.026;2023-02-03T18:39:42;5.00;99.90
30150;DHT22;16962;48.646;9.026;2023-02-03T18:42:33;5.10;99.90
30150;DHT22;16962;48.646;9.026;2023-02-03T18:45:23;5.10;99.90
30150;DHT22;16962;48.646;9.026;2023-02-03T18:48:10;5.10;99.90
30150;DHT22;16962;48.646;9.026;2023-02-03T18:50:58;5.10;99.90
30150;DHT22;16962;48.646;9.026;2023-02-03T18:53:46;5.10;99.90
30150;DHT22;16962;48.646;9.026;2023-02-03T18:56:35;5.10;99.90
30150;DHT22;16962;48.646;9.026;2023-02-03T18:59:23;5.10;99.90
30150;DHT22;16962;48.646;9.026;2023-02-03T19:02:11;5.10;99.90
30150;DHT22;16962;48.646;9.026;2023-02-03T19:04:59;5.10;99.90
30150;DHT22;16962;48.646;9.026;2023-02-03T19:07:46;5.10;99.90
30150;DHT22;16962;48.646;9.026;2023-02-03T19:10:34;5.10;99.90
30150;DHT22;16962;48.646;9.026;2023-02-03T19:13:22;5.10;99.90
30150;DHT22;16962;48.646;9.026;2023-02-03T19:16:12;5.10;99.90
30150;DHT22;16962;48.646;9.026;2023-02-03T19:19:00;5.10;99.90
30150;DHT22;16962;48.646;9.026;2023-02-03T19:21:48;5.10;99.90
30150;DHT22;16962;48.646;9.026;2023-02-03T19:24:36;5.10;99.90
30150;DHT22;16962;48.646;9.026;2023-02-03T19:27:24;5.10;99.90
30150;DHT22;16962;48.646;9.026;2023-02-03T19:30:11;5.10;99.90
30150;DHT22;16962;48.646;9.026;2023-02-03T19:33:06;5.10;99.90
30150;DHT22;16962;48.646;9.026;2023-02-03T19:35:54;5.10;99.90
30150;DHT22;16962;48.646;9.026;2023-02-03T19:38:41;5.10;99.90
30150;DHT22;16962;48.646;9.026;2023-02-03T19:41:31;5.20;99.90
30150;DHT22;16962;48.646;9.026;2023-02-03T19:44:28;5.10;99.90
30150;DHT22;16962;48.646;9.026;2023-02-03T19:47:15;5.20;99.90
30150;DHT22;16962;48.646;9.026;2023-02-03T19:50:03;5.20;99.90
30150;DHT22;16962;48.646;9.026;2023-02-03T19:52:50;5.10;99.90
30150;DHT22;16962;48.646;9.026;2023-02-03T19:55:38;5.20;99.90
30150;DHT22;16962;48.646;9.026;2023-02-03T19:58:28;5.10;99.90
30150;DHT22;16962;48.646;9.026;2023-02-03T20:01:17;5.20;99.90
30150;DHT22;16962;48.646;9.026;2023-02-03T20:04:06;5.10;99.90
30150;DHT22;16962;48.646;9.026;2023-02-03T20:06:53;5.10;99.90
30150;DHT22;16962;48.646;9.026;2023-02-03T20:09:43;5.10;99.90
30150;DHT22;16962;48.646;9.026;2023-02-03T20:12:30;5.10;99.90
30150;DHT22;16962;48.646;9.026;2023-02-03T20:15:21;5.10;99.90
30150;DHT22;16962;48.646;9.026;2023-02-03T20:18:08;5.10;99.90
30150;DHT22;16962;48.646;9.026;2023-02-03T20:20:59;5.10;99.90
30150;DHT22;16962;48.646;9.026;2023-02-03T20:23:46;5.10;99.90
30150;DHT22;16962;48.646;9.026;2023-02-03T20:26:34;5.10;99.90
30150;DHT22;16962;48.646;9.026;2023-02-03T20:29:21;5.10;99.90
30150;DHT22;16962;48.646;9.026;2023-02-03T20:32:08;5.10;99.90
30150;DHT22;16962;48.646;9.026;2023-02-03T20:34:58;5.10;99.90
30150;DHT22;16962;48.646;9.026;2023-02-03T20:37:46;5.10;99.90
30150;DHT22;16962;48.646;9.026;2023-02-03T20:40:36;5.10;99.90
30150;DHT22;16962;48.646;9.026;2023-02-03T20:43:27;5.10;99.90
30150;DHT22;16962;48.646;9.026;2023-02-03T20:46:17;5.10;99.90
30150;DHT22;16962;48.646;9.026;2023-02-03T20:49:14;5.10;99.90
30150;DHT22;16962;48.646;9.026;2023-02-03T20:52:13;5.10;99.90
30150;DHT22;16962;48.646;9.026;2023-02-03T20:55:00;5.10;99.90
30150;DHT22;16962;48.646;9.026;2023-02-03T20:57:49;5.10;99.90
30150;DHT22;16962;48.646;9.026;2023-02-03T21:00:39;5.10;99.90
30150;DHT22;16962;48.646;9.026;2023-02-03T21:03:27;5.10;99.90
30150;DHT22;16962;48.646;9.026;2023-02-03T21:06:34;5.10;99.90
30150;DHT22;16962;48.646;9.026;2023-02-03T21:09:24;5.20;99.90
30150;DHT22;16962;48.646;9.026;2023-02-03T21:12:13;5.20;99.90
30150;DHT22;16962;48.646;9.026;2023-02-03T21:15:01;5.20;99.90
30150;DHT22;16962;48.646;9.026;2023-02-03T21:17:48;5.20;99.90
30150;DHT22;16962;48.646;9.026;2023-02-03T21:20:36;5.20;99.90
30150;DHT22;16962;48.646;9.026;2023-02-03T21:23:26;5.20;99.90
30150;DHT22;16962;48.646;9.026;2023-02-03T21:26:25;5.20;99.90
30150;DHT22;16962;48.646;9.026;2023-02-03T21:32:13;5.20;99.90
30150;DHT22;16962;48.646;9.026;2023-02-03T21:35:00;5.30;99.90
30150;DHT22;16962;48.646;9.026;2023-02-03T21:37:47;5.20;99.90
30150;DHT22;16962;48.646;9.026;2023-02-03T21:40:35;5.20;99.90
30150;DHT22;16962;48.646;9.026;2023-02-03T21:43:23;5.30;99.90
30150;DHT22;16962;48.646;9.026;2023-02-03T21:46:28;5.30;99.90
30150;DHT22;16962;48.646;9.026;2023-02-03T21:49:18;5.30;99.90
30150;DHT22;16962;48.646;9.026;2023-02-03T21:52:13;5.40;99.90
30150;DHT22;16962;48.646;9.026;2023-02-03T21:55:00;5.40;99.90
30150;DHT22;16962;48.646;9.026;2023-02-03T21:57:53;5.50;99.90
30150;DHT22;16962;48.646;9.026;2023-02-03T22:00:43;5.50;99.90
30150;DHT22;16962;48.646;9.026;2023-02-03T22:03:42;5.50;99.90
30150;DHT22;16962;48.646;9.026;2023-02-03T22:06:48;5.60;99.90
30150;DHT22;16962;48.646;9.026;2023-02-03T22:09:35;5.70;99.90
30150;DHT22;16962;48.646;9.026;2023-02-03T22:12:22;5.80;99.90
30150;DHT22;16962;48.646;9.026;2023-02-03T22:15:10;5.80;99.90
30150;DHT22;16962;48.646;9.026;2023-02-03T22:17:59;5.80;99.90
30150;DHT22;16962;48.646;9.026;2023-02-03T22:20:46;5.90;99.90
30150;DHT22;16962;48.646;9.026;2023-02-03T22:23:38;5.90;99.90
30150;DHT22;16962;48.646;9.026;2023-02-03T22:26:25;5.90;99.90
30150;DHT22;16962;48.646;9.026;2023-02-03T22:29:15;5.90;99.90
30150;DHT22;16962;48.646;9.026;2023-02-03T22:32:02;6.00;99.90
30150;DHT22;16962;48.646;9.026;2023-02-03T22:34:58;6.00;99.90
30150;DHT22;16962;48.646;9.026;2023-02-03T22:37:45;6.00;99.90
30150;DHT22;16962;48.646;9.026;2023-02-03T22:40:38;6.00;99.90
30150;DHT22;16962;48.646;9.026;2023-02-03T22:43:26;6.00;99.90
30150;DHT22;16962;48.646;9.026;2023-02-03T22:46:17;6.00;99.90
30150;DHT22;16962;48.646;9.026;2023-02-03T22:52:45;6.00;99.90
30150;DHT22;16962;48.646;9.026;2023-02-03T22:55:40;5.90;99.90
30150;DHT22;16962;48.646;9.026;2023-02-03T22:58:31;6.00;99.90
30150;DHT22;16962;48.646;9.026;2023-02-03T23:01:18;6.00;99.90
30150;DHT22;16962;48.646;9.026;2023-02-03T23:04:08;6.00;99.90
30150;DHT22;16962;48.646;9.026;2023-02-03T23:06:55;6.00;99.90
30150;DHT22;16962;48.646;9.026;2023-02-03T23:09:42;6.00;99.90
30150;DHT22;16962;48.646;9.026;2023-02-03T23:12:31;6.00;99.90
30150;DHT22;16962;48.646;9.026;2023-02-03T23:15:20;6.00;99.90
30150;DHT22;16962;48.646;9.026;2023-02-03T23:18:09;6.00;99.90
30150;DHT22;16962;48.646;9.026;2023-02-03T23:21:17;5.90;99.90
30150;DHT22;16962;48.646;9.026;2023-02-03T23:24:09;5.90;99.90
30150;DHT22;16962;48.646;9.026;2023-02-03T23:26:56;5.90;99.90
30150;DHT22;16962;48.646;9.026;2023-02-03T23:29:43;5.90;99.90
30150;DHT22;16962;48.646;9.026;2023-02-03T23:32:37;5.90;99.90
30150;DHT22;16962;48.646;9.026;2023-02-03T23:35:24;5.90;99.90
30150;DHT22;16962;48.646;9.026;2023-02-03T23:38:34;5.90;99.90
30150;DHT22;16962;48.646;9.026;2023-02-03T23:41:25;5.90;99.90
30150;DHT22;16962;48.646;9.026;2023-02-03T23:44:12;5.90;99.90
30150;DHT22;16962;48.646;9.026;2023-02-03T23:46:59;5.90;99.90
30150;DHT22;16962;48.646;9.026;2023-02-03T23:49:46;5.90;99.90
30150;DHT22;16962;48.646;9.026;2023-02-03T23:52:34;5.90;99.90
30150;DHT22;16962;48.646;9.026;2023-02-03T23:55:26;5.90;99.90
30150;DHT22;16962;48.646;9.026;2023-02-03T23:58:13;5.90;99.90
